sensor_id;sensor_type;location;lat;lon;timestamp;temperature;humidity
64951;DHT22;51482;47.014;7.652;2023-05-07T00:00:46;13.70;99.90
64951;DHT22;51482;47.014;7.652;2023-05-07T00:03:12;13.70;99.90
64951;DHT22;51482;47.014;7.652;2023-05-07T00:05:39;13.70;99.90
64951;DHT22;51482;47.014;7.652;2023-05-07T00:08:05;13.70;99.90
64951;DHT22;51482;47.014;7.652;2023-05-07T00:10:30;13.80;99.90
64951;DHT22;51482;47.014;7.652;2023-05-07T00:12:56;13.70;99.90
64951;DHT22;51482;47.014;7.652;2023-05-07T00:15:21;13.80;99.90
64951;DHT22;51482;47.014;7.652;2023-05-07T00:17:47;13.70;99.90
64951;DHT22;51482;47.014;7.652;2023-05-07T00:20:12;13.70;99.90
64951;DHT22;51482;47.014;7.652;2023-05-07T00:22:38;13.60;99.90
64951;DHT22;51482;47.014;7.652;2023-05-07T00:25:04;13.50;99.90
64951;DHT22;51482;47.014;7.652;2023-05-07T00:27:30;13.40;99.90
64951;DHT22;51482;47.014;7.652;2023-05-07T00:29:56;13.40;99.90
64951;DHT22;51482;47.014;7.652;2023-05-07T00:32:21;13.30;99.90
64951;DHT22;51482;47.014;7.652;2023-05-07T00:34:47;13.30;99.90
64951;DHT22;51482;47.014;7.652;2023-05-07T00:37:12;13.20;99.90
64951;DHT22;51482;47.014;7.652;2023-05-07T00:39:38;13.20;99.90
64951;DHT22;51482;47.014;7.652;2023-05-07T00:42:04;13.30;99.90
64951;DHT22;51482;47.014;7.652;2023-05-07T00:44:29;13.30;99.90
64951;DHT22;51482;47.014;7.652;2023-05-07T00:46:57;13.30;99.90
64951;DHT22;51482;47.014;7.652;2023-05-07T00:49:25;13.90;99.90
64951;DHT22;51482;47.014;7.652;2023-05-07T00:51:52;13.20;99.90
64951;DHT22;51482;47.014;7.652;2023-05-07T00:54:18;13.10;99.90
64951;DHT22;51482;47.014;7.652;2023-05-07T00:56:44;13.10;99.90
64951;DHT22;51482;47.014;7.652;2023-05-07T00:59:10;13.10;99.90
64951;DHT22;51482;47.014;7.652;2023-05-07T01:01:36;13.20;99.90
64951;DHT22;51482;47.014;7.652;2023-05-07T01:04:02;13.20;99.90
64951;DHT22;51482;47.014;7.652;2023-05-07T01:06:29;13.30;99.90
64951;DHT22;51482;47.014;7.652;2023-05-07T01:08:56;13.30;99.90
64951;DHT22;51482;47.014;7.652;2023-05-07T01:11:23;13.20;99.90
64951;DHT22;51482;47.014;7.652;2023-05-07T01:13:49;13.10;99.90
64951;DHT22;51482;47.014;7.652;2023-05-07T01:16:15;13.10;99.90
64951;DHT22;51482;47.014;7.652;2023-05-07T01:18:41;13.00;99.90
64951;DHT22;51482;47.014;7.652;2023-05-07T01:21:07;13.00;99.90
64951;DHT22;51482;47.014;7.652;2023-05-07T01:23:36;13.60;99.90
64951;DHT22;51482;47.014;7.652;2023-05-07T01:26:01;13.00;99.90
64951;DHT22;51482;47.014;7.652;2023-05-07T01:28:27;13.50;99.90
64951;DHT22;51482;47.014;7.652;2023-05-07T01:30:55;12.90;99.90
64951;DHT22;51482;47.014;7.652;2023-05-07T01:33:21;13.00;99.90
64951;DHT22;51482;47.014;7.652;2023-05-07T01:35:50;13.00;99.90
64951;DHT22;51482;47.014;7.652;2023-05-07T01:38:17;13.00;99.90
64951;DHT22;51482;47.014;7.652;2023-05-07T01:40:43;13.00;99.90
64951;DHT22;51482;47.014;7.652;2023-05-07T01:43:09;13.50;99.90
64951;DHT22;51482;47.014;7.652;2023-05-07T01:45:36;13.30;99.90
64951;DHT22;51482;47.014;7.652;2023-05-07T01:48:02;12.60;99.90
64951;DHT22;51482;47.014;7.652;2023-05-07T01:50:28;12.80;99.90
64951;DHT22;51482;47.014;7.652;2023-05-07T01:52:54;12.80;99.90
64951;DHT22;51482;47.014;7.652;2023-05-07T01:55:20;12.70;99.90
64951;DHT22;51482;47.014;7.652;2023-05-07T01:57:45;12.60;99.90
64951;DHT22;51482;47.014;7.652;2023-05-07T02:00:11;13.00;99.90
64951;DHT22;51482;47.014;7.652;2023-05-07T02:02:37;12.50;99.90
64951;DHT22;51482;47.014;7.652;2023-05-07T02:05:03;12.70;99.90
64951;DHT22;51482;47.014;7.652;2023-05-07T02:07:29;12.30;99.90
64951;DHT22;51482;47.014;7.652;2023-05-07T02:09:55;12.30;99.90
64951;DHT22;51482;47.014;7.652;2023-05-07T02:12:21;12.30;99.90
64951;DHT22;51482;47.014;7.652;2023-05-07T02:14:47;12.40;99.90
64951;DHT22;51482;47.014;7.652;2023-05-07T02:17:12;12.40;99.90
64951;DHT22;51482;47.014;7.652;2023-05-07T02:19:38;12.40;99.90
64951;DHT22;51482;47.014;7.652;2023-05-07T02:22:03;12.30;99.90
64951;DHT22;51482;47.014;7.652;2023-05-07T02:24:29;12.30;99.90
64951;DHT22;51482;47.014;7.652;2023-05-07T02:26:55;12.30;99.90
64951;DHT22;51482;47.014;7.652;2023-05-07T02:29:20;12.30;99.90
64951;DHT22;51482;47.014;7.652;2023-05-07T02:31:46;12.30;99.90
64951;DHT22;51482;47.014;7.652;2023-05-07T02:34:12;12.30;99.90
64951;DHT22;51482;47.014;7.652;2023-05-07T02:36:38;12.30;99.90
64951;DHT22;51482;47.014;7.652;2023-05-07T02:39:03;12.30;99.90
64951;DHT22;51482;47.014;7.652;2023-05-07T02:41:29;12.30;99.90
64951;DHT22;51482;47.014;7.652;2023-05-07T02:43:54;12.20;99.90
64951;DHT22;51482;47.014;7.652;2023-05-07T02:46:20;12.20;99.90
64951;DHT22;51482;47.014;7.652;2023-05-07T02:48:45;12.30;99.90
64951;DHT22;51482;47.014;7.652;2023-05-07T02:51:11;12.10;99.90
64951;DHT22;51482;47.014;7.652;2023-05-07T02:53:36;12.10;99.90
64951;DHT22;51482;47.014;7.652;2023-05-07T02:56:02;12.60;99.90
64951;DHT22;51482;47.014;7.652;2023-05-07T02:58:28;12.00;99.90
64951;DHT22;51482;47.014;7.652;2023-05-07T03:00:53;12.00;99.90
64951;DHT22;51482;47.014;7.652;2023-05-07T03:03:22;12.00;99.90
64951;DHT22;51482;47.014;7.652;2023-05-07T03:05:48;12.00;99.90
64951;DHT22;51482;47.014;7.652;2023-05-07T03:08:13;12.00;99.90
64951;DHT22;51482;47.014;7.652;2023-05-07T03:10:39;12.00;99.90
64951;DHT22;51482;47.014;7.652;2023-05-07T03:13:05;12.00;99.90
64951;DHT22;51482;47.014;7.652;2023-05-07T03:15:30;11.90;99.90
64951;DHT22;51482;47.014;7.652;2023-05-07T03:17:56;11.80;99.90
64951;DHT22;51482;47.014;7.652;2023-05-07T03:20:22;11.70;99.90
64951;DHT22;51482;47.014;7.652;2023-05-07T03:22:47;11.70;99.90
64951;DHT22;51482;47.014;7.652;2023-05-07T03:25:13;11.70;99.90
64951;DHT22;51482;47.014;7.652;2023-05-07T03:27:40;11.70;99.90
64951;DHT22;51482;47.014;7.652;2023-05-07T03:30:07;11.70;99.90
64951;DHT22;51482;47.014;7.652;2023-05-07T03:32:34;11.70;99.90
64951;DHT22;51482;47.014;7.652;2023-05-07T03:35:00;11.70;99.90
64951;DHT22;51482;47.014;7.652;2023-05-07T03:37:26;11.80;99.90
64951;DHT22;51482;47.014;7.652;2023-05-07T03:39:51;11.80;99.90
64951;DHT22;51482;47.014;7.652;2023-05-07T03:42:17;11.80;99.90
64951;DHT22;51482;47.014;7.652;2023-05-07T03:44:42;11.10;99.90
64951;DHT22;51482;47.014;7.652;2023-05-07T03:47:08;11.80;99.90
64951;DHT22;51482;47.014;7.652;2023-05-07T03:49:35;11.80;99.90
64951;DHT22;51482;47.014;7.652;2023-05-07T03:52:00;11.80;99.90
64951;DHT22;51482;47.014;7.652;2023-05-07T03:54:26;11.80;99.90
64951;DHT22;51482;47.014;7.652;2023-05-07T03:56:52;11.80;99.90
64951;DHT22;51482;47.014;7.652;2023-05-07T03:59:17;11.70;99.90
64951;DHT22;51482;47.014;7.652;2023-05-07T04:01:42;11.70;99.90
64951;DHT22;51482;47.014;7.652;2023-05-07T04:04:08;11.60;99.90
64951;DHT22;51482;47.014;7.652;2023-05-07T04:06:33;11.70;99.90
64951;DHT22;51482;47.014;7.652;2023-05-07T04:08:59;11.50;99.90
64951;DHT22;51482;47.014;7.652;2023-05-07T04:11:25;11.60;99.90
64951;DHT22;51482;47.014;7.652;2023-05-07T04:13:50;11.60;99.90
64951;DHT22;51482;47.014;7.652;2023-05-07T04:16:16;11.70;99.90
64951;DHT22;51482;47.014;7.652;2023-05-07T04:18:41;12.10;99.90
64951;DHT22;51482;47.014;7.652;2023-05-07T04:21:18;11.80;99.90
64951;DHT22;51482;47.014;7.652;2023-05-07T04:23:43;11.70;99.90
64951;DHT22;51482;47.014;7.652;2023-05-07T04:26:09;11.70;99.90
64951;DHT22;51482;47.014;7.652;2023-05-07T04:28:35;11.70;99.90
64951;DHT22;51482;47.014;7.652;2023-05-07T04:31:00;11.70;99.90
64951;DHT22;51482;47.014;7.652;2023-05-07T04:33:26;12.00;99.90
64951;DHT22;51482;47.014;7.652;2023-05-07T04:35:51;11.60;99.90
64951;DHT22;51482;47.014;7.652;2023-05-07T04:38:17;11.60;99.90
64951;DHT22;51482;47.014;7.652;2023-05-07T04:40:44;11.60;99.90
64951;DHT22;51482;47.014;7.652;2023-05-07T04:43:10;11.70;99.90
64951;DHT22;51482;47.014;7.652;2023-05-07T04:45:36;12.20;99.90
64951;DHT22;51482;47.014;7.652;2023-05-07T04:48:02;11.70;99.90
64951;DHT22;51482;47.014;7.652;2023-05-07T04:50:27;11.70;99.90
64951;DHT22;51482;47.014;7.652;2023-05-07T04:52:53;11.70;99.90
64951;DHT22;51482;47.014;7.652;2023-05-07T04:55:19;11.70;99.90
64951;DHT22;51482;47.014;7.652;2023-05-07T04:57:44;11.70;99.90
64951;DHT22;51482;47.014;7.652;2023-05-07T05:00:11;11.80;99.90
64951;DHT22;51482;47.014;7.652;2023-05-07T05:02:39;11.80;99.90
64951;DHT22;51482;47.014;7.652;2023-05-07T05:05:05;11.80;99.90
64951;DHT22;51482;47.014;7.652;2023-05-07T05:07:31;11.80;99.90
64951;DHT22;51482;47.014;7.652;2023-05-07T05:09:56;11.50;99.90
64951;DHT22;51482;47.014;7.652;2023-05-07T05:12:23;12.40;99.90
64951;DHT22;51482;47.014;7.652;2023-05-07T05:14:48;11.90;99.90
64951;DHT22;51482;47.014;7.652;2023-05-07T05:17:14;12.00;99.90
64951;DHT22;51482;47.014;7.652;2023-05-07T05:19:39;12.00;99.90
64951;DHT22;51482;47.014;7.652;2023-05-07T05:22:05;12.00;99.90
64951;DHT22;51482;47.014;7.652;2023-05-07T05:24:31;12.10;99.90
64951;DHT22;51482;47.014;7.652;2023-05-07T05:26:56;12.10;99.90
64951;DHT22;51482;47.014;7.652;2023-05-07T05:29:22;12.10;99.90
64951;DHT22;51482;47.014;7.652;2023-05-07T05:31:48;12.10;99.90
64951;DHT22;51482;47.014;7.652;2023-05-07T05:34:15;12.20;99.90
64951;DHT22;51482;47.014;7.652;2023-05-07T05:36:40;12.30;99.90
64951;DHT22;51482;47.014;7.652;2023-05-07T05:39:06;12.40;99.90
64951;DHT22;51482;47.014;7.652;2023-05-07T05:41:31;13.00;99.90
64951;DHT22;51482;47.014;7.652;2023-05-07T05:43:57;12.50;99.90
64951;DHT22;51482;47.014;7.652;2023-05-07T05:46:22;12.60;99.90
64951;DHT22;51482;47.014;7.652;2023-05-07T05:48:48;12.70;99.90
64951;DHT22;51482;47.014;7.652;2023-05-07T05:51:13;12.80;99.90
64951;DHT22;51482;47.014;7.652;2023-05-07T05:53:39;12.80;99.90
64951;DHT22;51482;47.014;7.652;2023-05-07T05:56:05;13.10;99.90
64951;DHT22;51482;47.014;7.652;2023-05-07T05:58:31;12.90;99.90
64951;DHT22;51482;47.014;7.652;2023-05-07T06:00:56;13.00;99.90
64951;DHT22;51482;47.014;7.652;2023-05-07T06:03:22;13.20;99.90
64951;DHT22;51482;47.014;7.652;2023-05-07T06:05:47;13.40;99.90
64951;DHT22;51482;47.014;7.652;2023-05-07T06:08:13;13.50;99.90
64951;DHT22;51482;47.014;7.652;2023-05-07T06:10:39;13.50;99.90
64951;DHT22;51482;47.014;7.652;2023-05-07T06:13:04;13.60;99.90
64951;DHT22;51482;47.014;7.652;2023-05-07T06:15:30;13.60;99.90
64951;DHT22;51482;47.014;7.652;2023-05-07T06:17:56;13.70;99.90
64951;DHT22;51482;47.014;7.652;2023-05-07T06:20:22;13.70;99.90
64951;DHT22;51482;47.014;7.652;2023-05-07T06:22:48;13.80;99.90
64951;DHT22;51482;47.014;7.652;2023-05-07T06:25:14;13.90;99.90
64951;DHT22;51482;47.014;7.652;2023-05-07T06:27:40;14.00;99.90
64951;DHT22;51482;47.014;7.652;2023-05-07T06:30:06;14.20;99.90
64951;DHT22;51482;47.014;7.652;2023-05-07T06:32:31;14.00;99.90
64951;DHT22;51482;47.014;7.652;2023-05-07T06:34:57;14.40;99.90
64951;DHT22;51482;47.014;7.652;2023-05-07T06:37:23;14.50;99.90
64951;DHT22;51482;47.014;7.652;2023-05-07T06:39:48;14.90;99.90
64951;DHT22;51482;47.014;7.652;2023-05-07T06:42:14;15.30;99.90
64951;DHT22;51482;47.014;7.652;2023-05-07T06:44:39;14.80;99.90
64951;DHT22;51482;47.014;7.652;2023-05-07T06:47:05;15.00;99.90
64951;DHT22;51482;47.014;7.652;2023-05-07T06:49:31;15.10;99.90
64951;DHT22;51482;47.014;7.652;2023-05-07T06:51:56;15.10;99.90
64951;DHT22;51482;47.014;7.652;2023-05-07T06:54:23;15.20;99.90
64951;DHT22;51482;47.014;7.652;2023-05-07T06:56:48;15.20;99.90
64951;DHT22;51482;47.014;7.652;2023-05-07T06:59:14;15.30;99.90
64951;DHT22;51482;47.014;7.652;2023-05-07T07:01:40;15.30;99.90
64951;DHT22;51482;47.014;7.652;2023-05-07T07:04:05;15.40;99.90
64951;DHT22;51482;47.014;7.652;2023-05-07T07:06:31;15.60;99.90
64951;DHT22;51482;47.014;7.652;2023-05-07T07:08:57;15.60;99.90
64951;DHT22;51482;47.014;7.652;2023-05-07T07:11:23;15.80;99.90
64951;DHT22;51482;47.014;7.652;2023-05-07T07:13:48;15.80;99.90
64951;DHT22;51482;47.014;7.652;2023-05-07T07:16:15;16.20;99.90
64951;DHT22;51482;47.014;7.652;2023-05-07T07:18:40;16.50;99.90
64951;DHT22;51482;47.014;7.652;2023-05-07T07:21:06;16.70;99.90
64951;DHT22;51482;47.014;7.652;2023-05-07T07:23:31;16.90;99.90
64951;DHT22;51482;47.014;7.652;2023-05-07T07:25:57;17.20;99.90
64951;DHT22;51482;47.014;7.652;2023-05-07T07:28:22;17.50;99.90
64951;DHT22;51482;47.014;7.652;2023-05-07T07:30:48;17.60;99.90
64951;DHT22;51482;47.014;7.652;2023-05-07T07:33:13;17.60;99.90
64951;DHT22;51482;47.014;7.652;2023-05-07T07:35:39;18.10;99.90
64951;DHT22;51482;47.014;7.652;2023-05-07T07:38:05;18.40;99.90
64951;DHT22;51482;47.014;7.652;2023-05-07T07:40:31;18.80;99.90
64951;DHT22;51482;47.014;7.652;2023-05-07T07:42:57;19.10;99.90
64951;DHT22;51482;47.014;7.652;2023-05-07T07:45:22;19.40;99.90
64951;DHT22;51482;47.014;7.652;2023-05-07T07:47:48;19.90;99.90
64951;DHT22;51482;47.014;7.652;2023-05-07T07:50:13;19.60;99.90
64951;DHT22;51482;47.014;7.652;2023-05-07T07:52:39;19.50;99.90
64951;DHT22;51482;47.014;7.652;2023-05-07T07:55:05;19.40;99.90
64951;DHT22;51482;47.014;7.652;2023-05-07T07:57:31;19.90;99.90
64951;DHT22;51482;47.014;7.652;2023-05-07T07:59:56;19.20;99.90
64951;DHT22;51482;47.014;7.652;2023-05-07T08:02:22;19.20;99.90
64951;DHT22;51482;47.014;7.652;2023-05-07T08:04:47;19.20;99.90
64951;DHT22;51482;47.014;7.652;2023-05-07T08:07:13;19.10;99.90
64951;DHT22;51482;47.014;7.652;2023-05-07T08:09:39;19.20;99.90
64951;DHT22;51482;47.014;7.652;2023-05-07T08:12:06;19.00;99.90
64951;DHT22;51482;47.014;7.652;2023-05-07T08:14:32;19.30;99.90
64951;DHT22;51482;47.014;7.652;2023-05-07T08:16:57;19.20;99.90
64951;DHT22;51482;47.014;7.652;2023-05-07T08:19:23;19.30;99.90
64951;DHT22;51482;47.014;7.652;2023-05-07T08:21:49;19.10;99.90
64951;DHT22;51482;47.014;7.652;2023-05-07T08:24:14;19.50;99.90
64951;DHT22;51482;47.014;7.652;2023-05-07T08:26:40;19.60;99.90
64951;DHT22;51482;47.014;7.652;2023-05-07T08:29:06;19.70;99.90
64951;DHT22;51482;47.014;7.652;2023-05-07T08:31:32;19.80;99.90
64951;DHT22;51482;47.014;7.652;2023-05-07T08:33:58;19.70;99.90
64951;DHT22;51482;47.014;7.652;2023-05-07T08:36:24;19.80;99.90
64951;DHT22;51482;47.014;7.652;2023-05-07T08:38:49;19.90;99.90
64951;DHT22;51482;47.014;7.652;2023-05-07T08:41:15;19.90;99.90
64951;DHT22;51482;47.014;7.652;2023-05-07T08:43:41;19.90;99.90
64951;DHT22;51482;47.014;7.652;2023-05-07T08:46:09;19.90;99.90
64951;DHT22;51482;47.014;7.652;2023-05-07T08:48:36;19.90;99.90
64951;DHT22;51482;47.014;7.652;2023-05-07T08:51:02;20.10;99.90
64951;DHT22;51482;47.014;7.652;2023-05-07T08:53:28;19.80;99.90
64951;DHT22;51482;47.014;7.652;2023-05-07T08:55:57;19.40;99.90
64951;DHT22;51482;47.014;7.652;2023-05-07T08:58:23;19.80;99.90
64951;DHT22;51482;47.014;7.652;2023-05-07T09:00:48;19.90;99.90
64951;DHT22;51482;47.014;7.652;2023-05-07T09:03:14;19.80;99.90
64951;DHT22;51482;47.014;7.652;2023-05-07T09:05:40;19.90;99.90
64951;DHT22;51482;47.014;7.652;2023-05-07T09:08:07;20.00;99.90
64951;DHT22;51482;47.014;7.652;2023-05-07T09:10:34;20.60;99.90
64951;DHT22;51482;47.014;7.652;2023-05-07T09:12:59;20.30;99.90
64951;DHT22;51482;47.014;7.652;2023-05-07T09:15:26;20.40;99.90
64951;DHT22;51482;47.014;7.652;2023-05-07T09:17:59;20.90;99.90
64951;DHT22;51482;47.014;7.652;2023-05-07T09:20:26;21.10;99.90
64951;DHT22;51482;47.014;7.652;2023-05-07T09:22:52;21.80;99.90
64951;DHT22;51482;47.014;7.652;2023-05-07T09:25:28;21.70;99.90
64951;DHT22;51482;47.014;7.652;2023-05-07T09:27:53;21.80;99.90
64951;DHT22;51482;47.014;7.652;2023-05-07T09:30:19;22.00;99.90
64951;DHT22;51482;47.014;7.652;2023-05-07T09:32:44;22.10;99.90
64951;DHT22;51482;47.014;7.652;2023-05-07T09:35:19;22.20;99.90
64951;DHT22;51482;47.014;7.652;2023-05-07T09:37:47;22.40;99.90
64951;DHT22;51482;47.014;7.652;2023-05-07T09:40:22;22.60;99.90
64951;DHT22;51482;47.014;7.652;2023-05-07T09:42:48;22.70;99.90
64951;DHT22;51482;47.014;7.652;2023-05-07T09:45:15;23.30;99.90
64951;DHT22;51482;47.014;7.652;2023-05-07T09:47:42;23.10;99.90
64951;DHT22;51482;47.014;7.652;2023-05-07T09:50:11;23.50;99.90
64951;DHT22;51482;47.014;7.652;2023-05-07T09:52:39;22.60;99.90
64951;DHT22;51482;47.014;7.652;2023-05-07T09:55:06;22.60;99.90
64951;DHT22;51482;47.014;7.652;2023-05-07T09:57:33;22.50;99.90
64951;DHT22;51482;47.014;7.652;2023-05-07T09:59:59;22.80;99.90
64951;DHT22;51482;47.014;7.652;2023-05-07T10:02:30;23.10;99.90
64951;DHT22;51482;47.014;7.652;2023-05-07T10:04:56;23.40;99.90
64951;DHT22;51482;47.014;7.652;2023-05-07T10:07:24;23.70;99.90
64951;DHT22;51482;47.014;7.652;2023-05-07T10:09:50;23.70;99.90
64951;DHT22;51482;47.014;7.652;2023-05-07T10:12:17;24.10;99.90
64951;DHT22;51482;47.014;7.652;2023-05-07T10:14:45;24.10;99.90
64951;DHT22;51482;47.014;7.652;2023-05-07T10:17:11;24.20;99.90
64951;DHT22;51482;47.014;7.652;2023-05-07T10:19:37;24.30;99.90
64951;DHT22;51482;47.014;7.652;2023-05-07T10:22:05;24.30;99.90
64951;DHT22;51482;47.014;7.652;2023-05-07T10:24:35;24.50;99.90
64951;DHT22;51482;47.014;7.652;2023-05-07T10:27:05;24.50;99.90
64951;DHT22;51482;47.014;7.652;2023-05-07T10:29:55;24.80;99.90
64951;DHT22;51482;47.014;7.652;2023-05-07T10:32:37;24.90;99.90
64951;DHT22;51482;47.014;7.652;2023-05-07T10:35:09;25.10;99.90
64951;DHT22;51482;47.014;7.652;2023-05-07T10:37:36;25.30;99.90
64951;DHT22;51482;47.014;7.652;2023-05-07T10:40:02;25.60;99.90
64951;DHT22;51482;47.014;7.652;2023-05-07T10:42:28;25.60;99.90
64951;DHT22;51482;47.014;7.652;2023-05-07T10:44:53;25.60;99.90
64951;DHT22;51482;47.014;7.652;2023-05-07T10:47:19;25.60;99.90
64951;DHT22;51482;47.014;7.652;2023-05-07T10:52:18;25.00;99.90
64951;DHT22;51482;47.014;7.652;2023-05-07T10:54:45;24.90;99.90
64951;DHT22;51482;47.014;7.652;2023-05-07T10:57:32;25.00;99.90
64951;DHT22;51482;47.014;7.652;2023-05-07T10:59:58;25.20;99.90
64951;DHT22;51482;47.014;7.652;2023-05-07T11:05:26;25.40;99.90
64951;DHT22;51482;47.014;7.652;2023-05-07T11:08:02;25.70;99.90
64951;DHT22;51482;47.014;7.652;2023-05-07T11:10:51;25.90;99.60
64951;DHT22;51482;47.014;7.652;2023-05-07T11:13:18;26.20;99.90
64951;DHT22;51482;47.014;7.652;2023-05-07T11:15:46;26.70;99.90
64951;DHT22;51482;47.014;7.652;2023-05-07T11:18:16;27.50;99.90
64951;DHT22;51482;47.014;7.652;2023-05-07T11:20:58;26.90;99.90
64951;DHT22;51482;47.014;7.652;2023-05-07T11:26:04;27.40;96.00
64951;DHT22;51482;47.014;7.652;2023-05-07T11:28:30;27.80;95.90
64951;DHT22;51482;47.014;7.652;2023-05-07T11:30:57;28.20;96.50
64951;DHT22;51482;47.014;7.652;2023-05-07T11:33:23;28.30;92.80
64951;DHT22;51482;47.014;7.652;2023-05-07T11:35:53;28.60;92.40
64951;DHT22;51482;47.014;7.652;2023-05-07T11:38:19;28.50;92.70
64951;DHT22;51482;47.014;7.652;2023-05-07T11:40:59;28.30;93.40
64951;DHT22;51482;47.014;7.652;2023-05-07T11:43:30;27.90;90.00
64951;DHT22;51482;47.014;7.652;2023-05-07T11:46:08;28.60;91.70
64951;DHT22;51482;47.014;7.652;2023-05-07T11:48:35;28.90;90.40
64951;DHT22;51482;47.014;7.652;2023-05-07T11:51:03;28.90;89.70
64951;DHT22;51482;47.014;7.652;2023-05-07T11:53:36;28.50;84.70
64951;DHT22;51482;47.014;7.652;2023-05-07T11:56:10;28.00;88.30
64951;DHT22;51482;47.014;7.652;2023-05-07T11:58:36;27.20;88.40
64951;DHT22;51482;47.014;7.652;2023-05-07T12:01:02;26.60;88.90
64951;DHT22;51482;47.014;7.652;2023-05-07T12:03:28;26.20;90.20
64951;DHT22;51482;47.014;7.652;2023-05-07T12:05:54;25.90;91.40
64951;DHT22;51482;47.014;7.652;2023-05-07T12:08:21;26.30;91.90
64951;DHT22;51482;47.014;7.652;2023-05-07T12:10:49;25.80;93.30
64951;DHT22;51482;47.014;7.652;2023-05-07T12:13:22;26.10;92.30
64951;DHT22;51482;47.014;7.652;2023-05-07T12:15:51;26.70;91.60
64951;DHT22;51482;47.014;7.652;2023-05-07T12:18:17;27.50;87.70
64951;DHT22;51482;47.014;7.652;2023-05-07T12:20:43;27.80;85.20
64951;DHT22;51482;47.014;7.652;2023-05-07T12:23:09;27.60;87.00
64951;DHT22;51482;47.014;7.652;2023-05-07T12:25:36;27.70;84.10
64951;DHT22;51482;47.014;7.652;2023-05-07T12:28:03;27.90;84.70
64951;DHT22;51482;47.014;7.652;2023-05-07T12:30:31;28.30;87.90
64951;DHT22;51482;47.014;7.652;2023-05-07T12:32:57;27.90;87.60
64951;DHT22;51482;47.014;7.652;2023-05-07T12:35:32;27.50;91.50
64951;DHT22;51482;47.014;7.652;2023-05-07T12:38:01;27.30;90.90
64951;DHT22;51482;47.014;7.652;2023-05-07T12:43:02;26.50;91.50
64951;DHT22;51482;47.014;7.652;2023-05-07T12:45:27;26.10;92.50
64951;DHT22;51482;47.014;7.652;2023-05-07T12:47:53;25.70;92.60
64951;DHT22;51482;47.014;7.652;2023-05-07T12:50:18;25.60;93.40
64951;DHT22;51482;47.014;7.652;2023-05-07T12:52:47;25.30;93.50
64951;DHT22;51482;47.014;7.652;2023-05-07T12:55:16;25.20;93.80
64951;DHT22;51482;47.014;7.652;2023-05-07T12:57:45;25.30;94.60
64951;DHT22;51482;47.014;7.652;2023-05-07T13:00:13;24.90;94.20
64951;DHT22;51482;47.014;7.652;2023-05-07T13:02:40;24.50;94.60
64951;DHT22;51482;47.014;7.652;2023-05-07T13:05:06;24.40;94.50
64951;DHT22;51482;47.014;7.652;2023-05-07T13:07:32;24.20;96.30
64951;DHT22;51482;47.014;7.652;2023-05-07T13:09:58;24.10;95.60
64951;DHT22;51482;47.014;7.652;2023-05-07T13:12:23;23.90;96.20
64951;DHT22;51482;47.014;7.652;2023-05-07T13:14:49;23.60;96.90
64951;DHT22;51482;47.014;7.652;2023-05-07T13:17:14;23.50;97.30
64951;DHT22;51482;47.014;7.652;2023-05-07T13:19:40;23.20;97.50
64951;DHT22;51482;47.014;7.652;2023-05-07T13:22:05;23.10;97.40
64951;DHT22;51482;47.014;7.652;2023-05-07T13:24:31;23.00;97.70
64951;DHT22;51482;47.014;7.652;2023-05-07T13:26:56;23.10;97.20
64951;DHT22;51482;47.014;7.652;2023-05-07T13:29:22;22.70;99.10
64951;DHT22;51482;47.014;7.652;2023-05-07T13:31:54;22.20;97.80
64951;DHT22;51482;47.014;7.652;2023-05-07T13:34:20;22.60;98.30
64951;DHT22;51482;47.014;7.652;2023-05-07T13:36:45;22.50;98.30
64951;DHT22;51482;47.014;7.652;2023-05-07T13:39:11;22.70;98.80
64951;DHT22;51482;47.014;7.652;2023-05-07T13:41:36;22.30;98.40
64951;DHT22;51482;47.014;7.652;2023-05-07T13:44:02;22.30;99.80
64951;DHT22;51482;47.014;7.652;2023-05-07T13:46:27;22.80;99.90
64951;DHT22;51482;47.014;7.652;2023-05-07T13:48:55;22.20;99.90
64951;DHT22;51482;47.014;7.652;2023-05-07T13:51:20;22.10;99.00
64951;DHT22;51482;47.014;7.652;2023-05-07T13:53:46;21.90;99.60
64951;DHT22;51482;47.014;7.652;2023-05-07T13:56:12;21.70;99.50
64951;DHT22;51482;47.014;7.652;2023-05-07T13:58:38;22.10;99.90
64951;DHT22;51482;47.014;7.652;2023-05-07T14:01:03;21.40;99.90
64951;DHT22;51482;47.014;7.652;2023-05-07T14:03:29;21.20;99.90
64951;DHT22;51482;47.014;7.652;2023-05-07T14:05:57;21.20;99.90
64951;DHT22;51482;47.014;7.652;2023-05-07T14:08:23;21.00;99.90
64951;DHT22;51482;47.014;7.652;2023-05-07T14:10:48;20.80;99.90
64951;DHT22;51482;47.014;7.652;2023-05-07T14:13:14;20.70;99.90
64951;DHT22;51482;47.014;7.652;2023-05-07T14:15:39;20.60;99.90
64951;DHT22;51482;47.014;7.652;2023-05-07T14:18:05;20.50;99.90
64951;DHT22;51482;47.014;7.652;2023-05-07T14:20:31;20.40;99.90
64951;DHT22;51482;47.014;7.652;2023-05-07T14:22:56;20.20;99.90
64951;DHT22;51482;47.014;7.652;2023-05-07T14:25:22;19.90;99.90
64951;DHT22;51482;47.014;7.652;2023-05-07T14:27:48;19.40;99.90
64951;DHT22;51482;47.014;7.652;2023-05-07T14:30:14;19.10;99.90
64951;DHT22;51482;47.014;7.652;2023-05-07T14:32:39;18.80;99.90
64951;DHT22;51482;47.014;7.652;2023-05-07T14:35:05;18.50;99.90
64951;DHT22;51482;47.014;7.652;2023-05-07T14:37:31;18.20;99.90
64951;DHT22;51482;47.014;7.652;2023-05-07T14:39:56;18.40;99.90
64951;DHT22;51482;47.014;7.652;2023-05-07T14:42:22;18.10;99.90
64951;DHT22;51482;47.014;7.652;2023-05-07T14:44:47;18.00;99.90
64951;DHT22;51482;47.014;7.652;2023-05-07T14:47:13;17.90;99.90
64951;DHT22;51482;47.014;7.652;2023-05-07T14:49:39;17.80;99.90
64951;DHT22;51482;47.014;7.652;2023-05-07T14:52:06;17.60;99.90
64951;DHT22;51482;47.014;7.652;2023-05-07T14:54:34;17.50;99.90
64951;DHT22;51482;47.014;7.652;2023-05-07T14:57:01;17.50;99.90
64951;DHT22;51482;47.014;7.652;2023-05-07T14:59:26;17.40;99.90
64951;DHT22;51482;47.014;7.652;2023-05-07T15:01:52;17.40;99.90
64951;DHT22;51482;47.014;7.652;2023-05-07T15:04:18;17.70;99.90
64951;DHT22;51482;47.014;7.652;2023-05-07T15:06:43;18.30;99.90
64951;DHT22;51482;47.014;7.652;2023-05-07T15:09:09;17.60;99.90
64951;DHT22;51482;47.014;7.652;2023-05-07T15:11:35;17.40;99.90
64951;DHT22;51482;47.014;7.652;2023-05-07T15:14:00;17.40;99.90
64951;DHT22;51482;47.014;7.652;2023-05-07T15:16:26;17.70;99.90
64951;DHT22;51482;47.014;7.652;2023-05-07T15:18:51;17.40;99.90
64951;DHT22;51482;47.014;7.652;2023-05-07T15:21:17;17.40;99.90
64951;DHT22;51482;47.014;7.652;2023-05-07T15:23:42;17.80;99.90
64951;DHT22;51482;47.014;7.652;2023-05-07T15:26:09;17.10;99.90
64951;DHT22;51482;47.014;7.652;2023-05-07T15:28:35;17.10;99.90
64951;DHT22;51482;47.014;7.652;2023-05-07T15:31:01;17.10;99.90
64951;DHT22;51482;47.014;7.652;2023-05-07T15:33:27;17.10;99.90
64951;DHT22;51482;47.014;7.652;2023-05-07T15:35:52;17.10;99.90